Hampton, Florida
Current Conditions -  °F | °C
As of 6:15 PM on Monday 22 Dec 2014 (Local Time) from K42J Reporting Station
Overcast Overcast  
Wind Chill: 22°   Ceiling: 300
Heat Index: 22°   Visibility: 5mi
Dew Point: 22°   Wind: 9mph
Humidity: 100%   Direction: 230°SW
Pressure: 29.91"   Gusts: NA
Location:  29.86°N, 82.13°W
Report Text: K42J 222315Z AUTO 23008KT 5SM BKN003 BKN025 OVC040 22/22 A2991 RMK AO1 TSNO
Loading
Personal Weather Stations






























Interactive Weather Map New forecast layout! Learn more

10-Day Weather Forecast

Advertisements
Track Severe Weather on mobile